<?xml version="1.0" encoding="UTF-8" standalone="no" ?>
<gpx xmlns="http://www.topografix.com/GPX/1/1" xmlns:xsi="http://www.w3.org/2001/XMLSchema-instance" xsi:schemaLocation="http://www.topografix.com/GPX/1/1 http://www.topografix.com/GPX/1/1/gpx.xsd" version="1.1" creator="VisuGPX - https://www.visugpx.com">
  <metadata>
    <name>Parapente à la Colmiane (06)</name>
    <desc><![CDATA[Premier vol à la colmiane]]></desc>
  </metadata>
  <trk>
    <name><![CDATA[Ccc]]></name>
    <desc><![CDATA[(null)]]></desc>
    <trkseg>
      <trkpt lat="44.09578" lon="7.19137">
        <ele>2075.451725</ele>
        <time>2011-05-28T09:37:21Z</time>
      </trkpt>
      <trkpt lat="44.09578" lon="7.19137">
        <ele>2075.451725</ele>
        <time>2011-05-28T09:37:21Z</time>
      </trkpt>
      <trkpt lat="44.09578" lon="7.19137">
        <ele>2075.451725</ele>
        <time>2011-05-28T09:37:34Z</time>
      </trkpt>
      <trkpt lat="44.09526" lon="7.19022">
        <ele>2045.451427</ele>
        <time>2011-05-28T09:41:02Z</time>
      </trkpt>
      <trkpt lat="44.09521" lon="7.18888">
        <ele>2039.451157</ele>
        <time>2011-05-28T09:41:13Z</time>
      </trkpt>
      <trkpt lat="44.09514" lon="7.18757">
        <ele>2036.450897</ele>
        <time>2011-05-28T09:41:25Z</time>
      </trkpt>
      <trkpt lat="44.09485" lon="7.18628">
        <ele>2037.4506</ele>
        <time>2011-05-28T09:41:37Z</time>
      </trkpt>
      <trkpt lat="44.09449" lon="7.18508">
        <ele>2032.450317</ele>
        <time>2011-05-28T09:41:49Z</time>
      </trkpt>
      <trkpt lat="44.09401" lon="7.18388">
        <ele>2027.450012</ele>
        <time>2011-05-28T09:42:01Z</time>
      </trkpt>
      <trkpt lat="44.09379" lon="7.18258">
        <ele>2008.44973</ele>
        <time>2011-05-28T09:42:15Z</time>
      </trkpt>
      <trkpt lat="44.09354" lon="7.1813">
        <ele>2004.449444</ele>
        <time>2011-05-28T09:42:26Z</time>
      </trkpt>
      <trkpt lat="44.09376" lon="7.18002">
        <ele>2002.449226</ele>
        <time>2011-05-28T09:42:38Z</time>
      </trkpt>
      <trkpt lat="44.09383" lon="7.17874">
        <ele>1996.448982</ele>
        <time>2011-05-28T09:42:52Z</time>
      </trkpt>
      <trkpt lat="44.09329" lon="7.17984">
        <ele>1990.44912</ele>
        <time>2011-05-28T09:43:02Z</time>
      </trkpt>
      <trkpt lat="44.09331" lon="7.18119">
        <ele>1995.449387</ele>
        <time>2011-05-28T09:43:11Z</time>
      </trkpt>
      <trkpt lat="44.09261" lon="7.18032">
        <ele>1999.449116</ele>
        <time>2011-05-28T09:43:24Z</time>
      </trkpt>
      <trkpt lat="44.09314" lon="7.17928">
        <ele>2003.44899</ele>
        <time>2011-05-28T09:43:33Z</time>
      </trkpt>
      <trkpt lat="44.0937" lon="7.17817">
        <ele>2005.448853</ele>
        <time>2011-05-28T09:43:44Z</time>
      </trkpt>
      <trkpt lat="44.09361" lon="7.17956">
        <ele>1998.449112</ele>
        <time>2011-05-28T09:44:01Z</time>
      </trkpt>
      <trkpt lat="44.09359" lon="7.18094">
        <ele>1996.449383</ele>
        <time>2011-05-28T09:44:09Z</time>
      </trkpt>
      <trkpt lat="44.09357" lon="7.18228">
        <ele>1995.449638</ele>
        <time>2011-05-28T09:44:18Z</time>
      </trkpt>
      <trkpt lat="44.09328" lon="7.18101">
        <ele>1995.449348</ele>
        <time>2011-05-28T09:44:33Z</time>
      </trkpt>
      <trkpt lat="44.09358" lon="7.17977">
        <ele>1997.44915</ele>
        <time>2011-05-28T09:44:42Z</time>
      </trkpt>
      <trkpt lat="44.09291" lon="7.1806">
        <ele>2009.449215</ele>
        <time>2011-05-28T09:44:59Z</time>
      </trkpt>
      <trkpt lat="44.09321" lon="7.18184">
        <ele>2010.449501</ele>
        <time>2011-05-28T09:45:07Z</time>
      </trkpt>
      <trkpt lat="44.09296" lon="7.18063">
        <ele>2015.44923</ele>
        <time>2011-05-28T09:45:20Z</time>
      </trkpt>
      <trkpt lat="44.09367" lon="7.1798">
        <ele>2015.449165</ele>
        <time>2011-05-28T09:45:29Z</time>
      </trkpt>
      <trkpt lat="44.09435" lon="7.17894">
        <ele>2016.449097</ele>
        <time>2011-05-28T09:45:38Z</time>
      </trkpt>
      <trkpt lat="44.09489" lon="7.17784">
        <ele>2012.448956</ele>
        <time>2011-05-28T09:45:49Z</time>
      </trkpt>
      <trkpt lat="44.09424" lon="7.17877">
        <ele>2007.449047</ele>
        <time>2011-05-28T09:45:59Z</time>
      </trkpt>
      <trkpt lat="44.09426" lon="7.18007">
        <ele>2004.449303</ele>
        <time>2011-05-28T09:46:09Z</time>
      </trkpt>
      <trkpt lat="44.09427" lon="7.18137">
        <ele>1999.449558</ele>
        <time>2011-05-28T09:46:21Z</time>
      </trkpt>
      <trkpt lat="44.09448" lon="7.18007">
        <ele>1993.449333</ele>
        <time>2011-05-28T09:46:49Z</time>
      </trkpt>
      <trkpt lat="44.09388" lon="7.18113">
        <ele>1992.449455</ele>
        <time>2011-05-28T09:47:05Z</time>
      </trkpt>
      <trkpt lat="44.09394" lon="7.18238">
        <ele>1999.449707</ele>
        <time>2011-05-28T09:47:14Z</time>
      </trkpt>
      <trkpt lat="44.09339" lon="7.18138">
        <ele>2007.44944</ele>
        <time>2011-05-28T09:47:28Z</time>
      </trkpt>
      <trkpt lat="44.09373" lon="7.18016">
        <ele>2011.449249</ele>
        <time>2011-05-28T09:47:37Z</time>
      </trkpt>
      <trkpt lat="44.09422" lon="7.17903">
        <ele>2016.449097</ele>
        <time>2011-05-28T09:47:47Z</time>
      </trkpt>
      <trkpt lat="44.09423" lon="7.18035">
        <ele>2004.449356</ele>
        <time>2011-05-28T09:48:13Z</time>
      </trkpt>
      <trkpt lat="44.09428" lon="7.18164">
        <ele>2000.449615</ele>
        <time>2011-05-28T09:48:21Z</time>
      </trkpt>
      <trkpt lat="44.09448" lon="7.18038">
        <ele>2000.449394</ele>
        <time>2011-05-28T09:48:46Z</time>
      </trkpt>
      <trkpt lat="44.09394" lon="7.18143">
        <ele>1993.449524</ele>
        <time>2011-05-28T09:49:08Z</time>
      </trkpt>
      <trkpt lat="44.09424" lon="7.18282">
        <ele>1998.449837</ele>
        <time>2011-05-28T09:49:15Z</time>
      </trkpt>
      <trkpt lat="44.09448" lon="7.18412">
        <ele>2000.450127</ele>
        <time>2011-05-28T09:49:24Z</time>
      </trkpt>
      <trkpt lat="44.09397" lon="7.18296">
        <ele>2000.449829</ele>
        <time>2011-05-28T09:49:42Z</time>
      </trkpt>
      <trkpt lat="44.09433" lon="7.18166">
        <ele>2002.449627</ele>
        <time>2011-05-28T09:49:50Z</time>
      </trkpt>
      <trkpt lat="44.09456" lon="7.1803">
        <ele>1998.44939</ele>
        <time>2011-05-28T09:50:02Z</time>
      </trkpt>
      <trkpt lat="44.09455" lon="7.1802">
        <ele>1996.449371</ele>
        <time>2011-05-28T09:50:03Z</time>
      </trkpt>
      <trkpt lat="44.09455" lon="7.18011">
        <ele>1996.449348</ele>
        <time>2011-05-28T09:50:04Z</time>
      </trkpt>
      <trkpt lat="44.09454" lon="7.18006">
        <ele>1995.449341</ele>
        <time>2011-05-28T09:50:05Z</time>
      </trkpt>
      <trkpt lat="44.09473" lon="7.18021">
        <ele>1991.449402</ele>
        <time>2011-05-28T09:50:10Z</time>
      </trkpt>
      <trkpt lat="44.09486" lon="7.18162">
        <ele>1989.449692</ele>
        <time>2011-05-28T09:50:14Z</time>
      </trkpt>
      <trkpt lat="44.09506" lon="7.18311">
        <ele>1985.450012</ele>
        <time>2011-05-28T09:50:22Z</time>
      </trkpt>
      <trkpt lat="44.09508" lon="7.18326">
        <ele>1984.450043</ele>
        <time>2011-05-28T09:50:23Z</time>
      </trkpt>
      <trkpt lat="44.09511" lon="7.18341">
        <ele>1984.450073</ele>
        <time>2011-05-28T09:50:24Z</time>
      </trkpt>
      <trkpt lat="44.09512" lon="7.18355">
        <ele>1984.450104</ele>
        <time>2011-05-28T09:50:25Z</time>
      </trkpt>
      <trkpt lat="44.09514" lon="7.18367">
        <ele>1984.450134</ele>
        <time>2011-05-28T09:50:26Z</time>
      </trkpt>
      <trkpt lat="44.0942" lon="7.18404">
        <ele>1986.450069</ele>
        <time>2011-05-28T09:50:39Z</time>
      </trkpt>
      <trkpt lat="44.09333" lon="7.1837">
        <ele>1988.449883</ele>
        <time>2011-05-28T09:50:48Z</time>
      </trkpt>
      <trkpt lat="44.09242" lon="7.18331">
        <ele>1993.449677</ele>
        <time>2011-05-28T09:51:01Z</time>
      </trkpt>
      <trkpt lat="44.09167" lon="7.18253">
        <ele>1995.449417</ele>
        <time>2011-05-28T09:51:12Z</time>
      </trkpt>
      <trkpt lat="44.09249" lon="7.18198">
        <ele>2003.449425</ele>
        <time>2011-05-28T09:51:48Z</time>
      </trkpt>
      <trkpt lat="44.092" lon="7.18312">
        <ele>2017.449577</ele>
        <time>2011-05-28T09:52:29Z</time>
      </trkpt>
      <trkpt lat="44.09176" lon="7.18186">
        <ele>2019.449303</ele>
        <time>2011-05-28T09:52:37Z</time>
      </trkpt>
      <trkpt lat="44.09275" lon="7.18171">
        <ele>2026.449413</ele>
        <time>2011-05-28T09:52:52Z</time>
      </trkpt>
      <trkpt lat="44.09188" lon="7.18226">
        <ele>2042.449394</ele>
        <time>2011-05-28T09:53:03Z</time>
      </trkpt>
      <trkpt lat="44.09275" lon="7.18182">
        <ele>2044.449432</ele>
        <time>2011-05-28T09:53:17Z</time>
      </trkpt>
      <trkpt lat="44.09322" lon="7.18296">
        <ele>2050.449722</ele>
        <time>2011-05-28T09:53:28Z</time>
      </trkpt>
      <trkpt lat="44.09261" lon="7.18203">
        <ele>2062.449455</ele>
        <time>2011-05-28T09:53:41Z</time>
      </trkpt>
      <trkpt lat="44.09354" lon="7.18195">
        <ele>2060.44957</ele>
        <time>2011-05-28T09:53:50Z</time>
      </trkpt>
      <trkpt lat="44.09415" lon="7.18288">
        <ele>2065.449837</ele>
        <time>2011-05-28T09:53:58Z</time>
      </trkpt>
      <trkpt lat="44.09434" lon="7.18421">
        <ele>2075.450127</ele>
        <time>2011-05-28T09:54:09Z</time>
      </trkpt>
      <trkpt lat="44.09455" lon="7.18546">
        <ele>2092.450397</ele>
        <time>2011-05-28T09:54:19Z</time>
      </trkpt>
      <trkpt lat="44.09504" lon="7.18665">
        <ele>2100.450699</ele>
        <time>2011-05-28T09:54:29Z</time>
      </trkpt>
      <trkpt lat="44.09529" lon="7.1879">
        <ele>2098.450977</ele>
        <time>2011-05-28T09:54:39Z</time>
      </trkpt>
      <trkpt lat="44.09494" lon="7.18667">
        <ele>2090.450691</ele>
        <time>2011-05-28T09:55:01Z</time>
      </trkpt>
      <trkpt lat="44.09505" lon="7.18536">
        <ele>2086.450447</ele>
        <time>2011-05-28T09:55:10Z</time>
      </trkpt>
      <trkpt lat="44.09516" lon="7.18398">
        <ele>2082.450195</ele>
        <time>2011-05-28T09:55:20Z</time>
      </trkpt>
      <trkpt lat="44.09466" lon="7.18284">
        <ele>2093.449902</ele>
        <time>2011-05-28T09:55:55Z</time>
      </trkpt>
      <trkpt lat="44.09494" lon="7.18151">
        <ele>2109.44968</ele>
        <time>2011-05-28T09:56:07Z</time>
      </trkpt>
      <trkpt lat="44.09559" lon="7.18061">
        <ele>2117.4496</ele>
        <time>2011-05-28T09:56:16Z</time>
      </trkpt>
      <trkpt lat="44.09608" lon="7.17956">
        <ele>2121.449463</ele>
        <time>2011-05-28T09:56:27Z</time>
      </trkpt>
      <trkpt lat="44.09586" lon="7.18091">
        <ele>2127.449692</ele>
        <time>2011-05-28T09:56:39Z</time>
      </trkpt>
      <trkpt lat="44.09588" lon="7.18221">
        <ele>2135.449951</ele>
        <time>2011-05-28T09:56:49Z</time>
      </trkpt>
      <trkpt lat="44.09576" lon="7.1835">
        <ele>2142.450184</ele>
        <time>2011-05-28T09:57:00Z</time>
      </trkpt>
      <trkpt lat="44.09603" lon="7.18223">
        <ele>2155.449982</ele>
        <time>2011-05-28T09:57:27Z</time>
      </trkpt>
      <trkpt lat="44.09646" lon="7.18107">
        <ele>2160.44981</ele>
        <time>2011-05-28T09:57:36Z</time>
      </trkpt>
      <trkpt lat="44.09641" lon="7.17975">
        <ele>2167.449547</ele>
        <time>2011-05-28T09:57:47Z</time>
      </trkpt>
      <trkpt lat="44.09642" lon="7.18145">
        <ele>2171.449879</ele>
        <time>2011-05-28T09:57:58Z</time>
      </trkpt>
      <trkpt lat="44.09627" lon="7.18287">
        <ele>2177.45013</ele>
        <time>2011-05-28T09:58:02Z</time>
      </trkpt>
      <trkpt lat="44.09699" lon="7.18381">
        <ele>2185.450424</ele>
        <time>2011-05-28T09:58:22Z</time>
      </trkpt>
      <trkpt lat="44.09707" lon="7.18397">
        <ele>2185.450462</ele>
        <time>2011-05-28T09:58:23Z</time>
      </trkpt>
      <trkpt lat="44.09714" lon="7.1841">
        <ele>2185.4505</ele>
        <time>2011-05-28T09:58:24Z</time>
      </trkpt>
      <trkpt lat="44.09754" lon="7.18527">
        <ele>2189.450779</ele>
        <time>2011-05-28T09:58:35Z</time>
      </trkpt>
      <trkpt lat="44.09699" lon="7.18644">
        <ele>2193.450928</ele>
        <time>2011-05-28T09:58:46Z</time>
      </trkpt>
      <trkpt lat="44.0963" lon="7.18735">
        <ele>2190.451012</ele>
        <time>2011-05-28T09:58:55Z</time>
      </trkpt>
      <trkpt lat="44.09606" lon="7.18864">
        <ele>2190.451233</ele>
        <time>2011-05-28T09:59:06Z</time>
      </trkpt>
      <trkpt lat="44.0963" lon="7.18994">
        <ele>2188.451519</ele>
        <time>2011-05-28T09:59:15Z</time>
      </trkpt>
      <trkpt lat="44.09644" lon="7.19122">
        <ele>2176.451786</ele>
        <time>2011-05-28T09:59:24Z</time>
      </trkpt>
      <trkpt lat="44.09663" lon="7.19252">
        <ele>2167.452068</ele>
        <time>2011-05-28T09:59:32Z</time>
      </trkpt>
      <trkpt lat="44.09611" lon="7.19356">
        <ele>2165.452194</ele>
        <time>2011-05-28T09:59:47Z</time>
      </trkpt>
      <trkpt lat="44.0958" lon="7.19485">
        <ele>2141.452408</ele>
        <time>2011-05-28T10:00:00Z</time>
      </trkpt>
      <trkpt lat="44.09579" lon="7.19617">
        <ele>2154.452663</ele>
        <time>2011-05-28T10:00:11Z</time>
      </trkpt>
      <trkpt lat="44.09566" lon="7.19743">
        <ele>2156.452896</ele>
        <time>2011-05-28T10:00:23Z</time>
      </trkpt>
      <trkpt lat="44.09552" lon="7.19871">
        <ele>2173.453121</ele>
        <time>2011-05-28T10:00:36Z</time>
      </trkpt>
      <trkpt lat="44.09551" lon="7.20005">
        <ele>2178.453377</ele>
        <time>2011-05-28T10:00:50Z</time>
      </trkpt>
      <trkpt lat="44.09555" lon="7.20133">
        <ele>2193.453636</ele>
        <time>2011-05-28T10:01:02Z</time>
      </trkpt>
      <trkpt lat="44.09511" lon="7.20249">
        <ele>2192.453804</ele>
        <time>2011-05-28T10:01:16Z</time>
      </trkpt>
      <trkpt lat="44.0942" lon="7.2028">
        <ele>2199.453735</ele>
        <time>2011-05-28T10:01:28Z</time>
      </trkpt>
      <trkpt lat="44.09357" lon="7.20373">
        <ele>2176.453827</ele>
        <time>2011-05-28T10:01:41Z</time>
      </trkpt>
      <trkpt lat="44.09298" lon="7.20469">
        <ele>2168.45393</ele>
        <time>2011-05-28T10:01:53Z</time>
      </trkpt>
      <trkpt lat="44.09228" lon="7.20558">
        <ele>2156.45401</ele>
        <time>2011-05-28T10:02:10Z</time>
      </trkpt>
      <trkpt lat="44.09164" lon="7.2065">
        <ele>2161.454102</ele>
        <time>2011-05-28T10:02:27Z</time>
      </trkpt>
      <trkpt lat="44.09095" lon="7.20739">
        <ele>2165.454178</ele>
        <time>2011-05-28T10:02:38Z</time>
      </trkpt>
      <trkpt lat="44.09012" lon="7.20805">
        <ele>2145.454185</ele>
        <time>2011-05-28T10:02:48Z</time>
      </trkpt>
      <trkpt lat="44.08939" lon="7.2088">
        <ele>2139.454231</ele>
        <time>2011-05-28T10:02:59Z</time>
      </trkpt>
      <trkpt lat="44.08912" lon="7.20999">
        <ele>2135.45443</ele>
        <time>2011-05-28T10:03:09Z</time>
      </trkpt>
      <trkpt lat="44.08861" lon="7.21113">
        <ele>2132.454582</ele>
        <time>2011-05-28T10:03:20Z</time>
      </trkpt>
      <trkpt lat="44.08801" lon="7.21208">
        <ele>2121.454681</ele>
        <time>2011-05-28T10:03:29Z</time>
      </trkpt>
      <trkpt lat="44.08832" lon="7.21085">
        <ele>2134.454491</ele>
        <time>2011-05-28T10:03:52Z</time>
      </trkpt>
      <trkpt lat="44.08763" lon="7.21169">
        <ele>2123.454552</ele>
        <time>2011-05-28T10:04:05Z</time>
      </trkpt>
      <trkpt lat="44.08719" lon="7.21284">
        <ele>2122.454716</ele>
        <time>2011-05-28T10:04:14Z</time>
      </trkpt>
      <trkpt lat="44.08764" lon="7.21173">
        <ele>2119.454567</ele>
        <time>2011-05-28T10:04:46Z</time>
      </trkpt>
      <trkpt lat="44.08707" lon="7.21291">
        <ele>2127.454712</ele>
        <time>2011-05-28T10:05:00Z</time>
      </trkpt>
      <trkpt lat="44.08688" lon="7.21424">
        <ele>2140.454948</ele>
        <time>2011-05-28T10:05:06Z</time>
      </trkpt>
      <trkpt lat="44.08735" lon="7.21309">
        <ele>2143.454792</ele>
        <time>2011-05-28T10:05:26Z</time>
      </trkpt>
      <trkpt lat="44.08816" lon="7.21228">
        <ele>2143.454746</ele>
        <time>2011-05-28T10:05:35Z</time>
      </trkpt>
      <trkpt lat="44.08748" lon="7.21318">
        <ele>2150.454826</ele>
        <time>2011-05-28T10:06:01Z</time>
      </trkpt>
      <trkpt lat="44.08807" lon="7.21209">
        <ele>2157.454693</ele>
        <time>2011-05-28T10:06:11Z</time>
      </trkpt>
      <trkpt lat="44.08884" lon="7.21143">
        <ele>2159.454674</ele>
        <time>2011-05-28T10:06:19Z</time>
      </trkpt>
      <trkpt lat="44.08821" lon="7.21238">
        <ele>2157.454769</ele>
        <time>2011-05-28T10:06:44Z</time>
      </trkpt>
      <trkpt lat="44.08805" lon="7.21372">
        <ele>2151.455009</ele>
        <time>2011-05-28T10:06:54Z</time>
      </trkpt>
      <trkpt lat="44.08744" lon="7.21479">
        <ele>2146.455139</ele>
        <time>2011-05-28T10:07:05Z</time>
      </trkpt>
      <trkpt lat="44.08682" lon="7.21571">
        <ele>2127.455231</ele>
        <time>2011-05-28T10:07:17Z</time>
      </trkpt>
      <trkpt lat="44.08587" lon="7.2155">
        <ele>2112.455055</ele>
        <time>2011-05-28T10:07:28Z</time>
      </trkpt>
      <trkpt lat="44.08494" lon="7.21551">
        <ele>2082.454926</ele>
        <time>2011-05-28T10:07:39Z</time>
      </trkpt>
      <trkpt lat="44.08414" lon="7.2148">
        <ele>2067.454674</ele>
        <time>2011-05-28T10:07:51Z</time>
      </trkpt>
      <trkpt lat="44.0834" lon="7.21403">
        <ele>2072.454422</ele>
        <time>2011-05-28T10:08:06Z</time>
      </trkpt>
      <trkpt lat="44.08241" lon="7.21408">
        <ele>2073.4543</ele>
        <time>2011-05-28T10:08:25Z</time>
      </trkpt>
      <trkpt lat="44.0815" lon="7.21412">
        <ele>2089.454174</ele>
        <time>2011-05-28T10:08:44Z</time>
      </trkpt>
      <trkpt lat="44.08133" lon="7.21543">
        <ele>2098.454407</ele>
        <time>2011-05-28T10:08:55Z</time>
      </trkpt>
      <trkpt lat="44.08131" lon="7.21409">
        <ele>2105.454144</ele>
        <time>2011-05-28T10:09:23Z</time>
      </trkpt>
      <trkpt lat="44.08069" lon="7.21504">
        <ele>2098.454243</ele>
        <time>2011-05-28T10:09:45Z</time>
      </trkpt>
      <trkpt lat="44.07979" lon="7.21532">
        <ele>2090.454178</ele>
        <time>2011-05-28T10:10:02Z</time>
      </trkpt>
      <trkpt lat="44.07946" lon="7.21415">
        <ele>2090.453896</ele>
        <time>2011-05-28T10:10:12Z</time>
      </trkpt>
      <trkpt lat="44.07973" lon="7.21292">
        <ele>2087.45369</ele>
        <time>2011-05-28T10:10:22Z</time>
      </trkpt>
      <trkpt lat="44.07885" lon="7.21257">
        <ele>2080.453506</ele>
        <time>2011-05-28T10:10:38Z</time>
      </trkpt>
      <trkpt lat="44.07809" lon="7.21328">
        <ele>2068.453537</ele>
        <time>2011-05-28T10:10:49Z</time>
      </trkpt>
      <trkpt lat="44.07718" lon="7.21318">
        <ele>2047.453392</ele>
        <time>2011-05-28T10:11:02Z</time>
      </trkpt>
      <trkpt lat="44.07627" lon="7.21348">
        <ele>2021.453323</ele>
        <time>2011-05-28T10:11:16Z</time>
      </trkpt>
      <trkpt lat="44.07541" lon="7.21388">
        <ele>1995.453278</ele>
        <time>2011-05-28T10:11:28Z</time>
      </trkpt>
      <trkpt lat="44.07454" lon="7.21447">
        <ele>1968.453278</ele>
        <time>2011-05-28T10:11:40Z</time>
      </trkpt>
      <trkpt lat="44.07381" lon="7.21531">
        <ele>1957.453339</ele>
        <time>2011-05-28T10:11:50Z</time>
      </trkpt>
      <trkpt lat="44.07316" lon="7.21628">
        <ele>1949.453438</ele>
        <time>2011-05-28T10:12:00Z</time>
      </trkpt>
      <trkpt lat="44.07233" lon="7.21704">
        <ele>1930.453476</ele>
        <time>2011-05-28T10:12:10Z</time>
      </trkpt>
      <trkpt lat="44.07151" lon="7.21758">
        <ele>1916.453468</ele>
        <time>2011-05-28T10:12:19Z</time>
      </trkpt>
      <trkpt lat="44.07066" lon="7.21822">
        <ele>1908.453476</ele>
        <time>2011-05-28T10:12:29Z</time>
      </trkpt>
      <trkpt lat="44.06976" lon="7.21851">
        <ele>1883.453403</ele>
        <time>2011-05-28T10:12:40Z</time>
      </trkpt>
      <trkpt lat="44.06882" lon="7.21863">
        <ele>1860.453297</ele>
        <time>2011-05-28T10:12:51Z</time>
      </trkpt>
      <trkpt lat="44.06797" lon="7.21812">
        <ele>1835.453079</ele>
        <time>2011-05-28T10:13:02Z</time>
      </trkpt>
      <trkpt lat="44.06704" lon="7.21804">
        <ele>1820.452934</ele>
        <time>2011-05-28T10:13:14Z</time>
      </trkpt>
      <trkpt lat="44.06613" lon="7.21818">
        <ele>1791.452835</ele>
        <time>2011-05-28T10:13:48Z</time>
      </trkpt>
      <trkpt lat="44.06532" lon="7.2176">
        <ele>1777.452606</ele>
        <time>2011-05-28T10:14:02Z</time>
      </trkpt>
      <trkpt lat="44.06456" lon="7.21685">
        <ele>1770.452354</ele>
        <time>2011-05-28T10:14:15Z</time>
      </trkpt>
      <trkpt lat="44.06406" lon="7.21581">
        <ele>1771.45208</ele>
        <time>2011-05-28T10:14:28Z</time>
      </trkpt>
      <trkpt lat="44.06497" lon="7.21622">
        <ele>1780.452286</ele>
        <time>2011-05-28T10:14:55Z</time>
      </trkpt>
      <trkpt lat="44.06586" lon="7.21681">
        <ele>1785.452526</ele>
        <time>2011-05-28T10:15:04Z</time>
      </trkpt>
      <trkpt lat="44.06537" lon="7.21576">
        <ele>1779.452248</ele>
        <time>2011-05-28T10:15:21Z</time>
      </trkpt>
      <trkpt lat="44.06446" lon="7.21568">
        <ele>1752.45211</ele>
        <time>2011-05-28T10:15:34Z</time>
      </trkpt>
      <trkpt lat="44.06354" lon="7.21535">
        <ele>1734.451916</ele>
        <time>2011-05-28T10:15:47Z</time>
      </trkpt>
      <trkpt lat="44.06271" lon="7.21482">
        <ele>1716.451698</ele>
        <time>2011-05-28T10:15:59Z</time>
      </trkpt>
      <trkpt lat="44.06186" lon="7.21426">
        <ele>1705.451469</ele>
        <time>2011-05-28T10:16:11Z</time>
      </trkpt>
      <trkpt lat="44.06102" lon="7.2137">
        <ele>1696.451244</ele>
        <time>2011-05-28T10:16:24Z</time>
      </trkpt>
      <trkpt lat="44.06154" lon="7.21267">
        <ele>1691.451107</ele>
        <time>2011-05-28T10:16:52Z</time>
      </trkpt>
      <trkpt lat="44.0606" lon="7.21252">
        <ele>1696.450951</ele>
        <time>2011-05-28T10:17:06Z</time>
      </trkpt>
      <trkpt lat="44.06133" lon="7.21337">
        <ele>1718.451218</ele>
        <time>2011-05-28T10:17:24Z</time>
      </trkpt>
      <trkpt lat="44.06139" lon="7.21351">
        <ele>1718.451256</ele>
        <time>2011-05-28T10:17:25Z</time>
      </trkpt>
      <trkpt lat="44.06145" lon="7.21366">
        <ele>1718.45129</ele>
        <time>2011-05-28T10:17:26Z</time>
      </trkpt>
      <trkpt lat="44.06158" lon="7.21394">
        <ele>1719.451363</ele>
        <time>2011-05-28T10:17:28Z</time>
      </trkpt>
      <trkpt lat="44.06165" lon="7.21406">
        <ele>1719.451397</ele>
        <time>2011-05-28T10:17:29Z</time>
      </trkpt>
      <trkpt lat="44.06171" lon="7.21416">
        <ele>1719.451431</ele>
        <time>2011-05-28T10:17:30Z</time>
      </trkpt>
      <trkpt lat="44.06089" lon="7.21375">
        <ele>1734.451233</ele>
        <time>2011-05-28T10:17:54Z</time>
      </trkpt>
      <trkpt lat="44.06186" lon="7.2139">
        <ele>1757.451397</ele>
        <time>2011-05-28T10:18:13Z</time>
      </trkpt>
      <trkpt lat="44.06099" lon="7.21441">
        <ele>1784.451378</ele>
        <time>2011-05-28T10:18:37Z</time>
      </trkpt>
      <trkpt lat="44.06005" lon="7.21461">
        <ele>1788.451286</ele>
        <time>2011-05-28T10:18:51Z</time>
      </trkpt>
      <trkpt lat="44.06098" lon="7.21457">
        <ele>1793.451405</ele>
        <time>2011-05-28T10:19:16Z</time>
      </trkpt>
      <trkpt lat="44.06185" lon="7.2149">
        <ele>1793.451595</ele>
        <time>2011-05-28T10:19:25Z</time>
      </trkpt>
      <trkpt lat="44.06278" lon="7.21487">
        <ele>1794.451714</ele>
        <time>2011-05-28T10:19:36Z</time>
      </trkpt>
      <trkpt lat="44.06359" lon="7.21543">
        <ele>1795.451939</ele>
        <time>2011-05-28T10:19:48Z</time>
      </trkpt>
      <trkpt lat="44.06278" lon="7.21486">
        <ele>1801.451714</ele>
        <time>2011-05-28T10:20:00Z</time>
      </trkpt>
      <trkpt lat="44.06329" lon="7.2159">
        <ele>1803.451988</ele>
        <time>2011-05-28T10:20:27Z</time>
      </trkpt>
      <trkpt lat="44.06353" lon="7.21722">
        <ele>1803.452282</ele>
        <time>2011-05-28T10:20:35Z</time>
      </trkpt>
      <trkpt lat="44.06416" lon="7.21811">
        <ele>1805.452545</ele>
        <time>2011-05-28T10:20:46Z</time>
      </trkpt>
      <trkpt lat="44.06362" lon="7.21711">
        <ele>1914.452278</ele>
        <time>2011-05-28T10:21:50Z</time>
      </trkpt>
      <trkpt lat="44.06271" lon="7.21704">
        <ele>1942.452133</ele>
        <time>2011-05-28T10:22:00Z</time>
      </trkpt>
      <trkpt lat="44.06176" lon="7.21721">
        <ele>1969.452034</ele>
        <time>2011-05-28T10:22:14Z</time>
      </trkpt>
      <trkpt lat="44.06086" lon="7.21745">
        <ele>1995.451958</ele>
        <time>2011-05-28T10:22:28Z</time>
      </trkpt>
      <trkpt lat="44.06001" lon="7.21693">
        <ele>2019.451736</ele>
        <time>2011-05-28T10:22:43Z</time>
      </trkpt>
      <trkpt lat="44.06062" lon="7.21786">
        <ele>2053.452003</ele>
        <time>2011-05-28T10:23:20Z</time>
      </trkpt>
      <trkpt lat="44.05972" lon="7.21791">
        <ele>2063.451889</ele>
        <time>2011-05-28T10:23:30Z</time>
      </trkpt>
      <trkpt lat="44.05892" lon="7.21722">
        <ele>2075.451645</ele>
        <time>2011-05-28T10:23:39Z</time>
      </trkpt>
      <trkpt lat="44.05819" lon="7.21647">
        <ele>2095.451393</ele>
        <time>2011-05-28T10:23:52Z</time>
      </trkpt>
      <trkpt lat="44.05726" lon="7.21613">
        <ele>2128.451195</ele>
        <time>2011-05-28T10:24:21Z</time>
      </trkpt>
      <trkpt lat="44.05644" lon="7.21543">
        <ele>2142.450939</ele>
        <time>2011-05-28T10:24:34Z</time>
      </trkpt>
      <trkpt lat="44.05577" lon="7.21455">
        <ele>2161.450676</ele>
        <time>2011-05-28T10:24:45Z</time>
      </trkpt>
      <trkpt lat="44.05518" lon="7.21356">
        <ele>2178.450401</ele>
        <time>2011-05-28T10:24:55Z</time>
      </trkpt>
      <trkpt lat="44.0545" lon="7.21274">
        <ele>2209.450142</ele>
        <time>2011-05-28T10:25:07Z</time>
      </trkpt>
      <trkpt lat="44.05366" lon="7.21211">
        <ele>2234.449902</ele>
        <time>2011-05-28T10:25:20Z</time>
      </trkpt>
      <trkpt lat="44.05271" lon="7.21196">
        <ele>2243.449738</ele>
        <time>2011-05-28T10:25:33Z</time>
      </trkpt>
      <trkpt lat="44.05182" lon="7.21152">
        <ele>2255.449528</ele>
        <time>2011-05-28T10:25:48Z</time>
      </trkpt>
      <trkpt lat="44.05116" lon="7.21058">
        <ele>2263.449249</ele>
        <time>2011-05-28T10:26:01Z</time>
      </trkpt>
      <trkpt lat="44.05045" lon="7.20979">
        <ele>2271.448994</ele>
        <time>2011-05-28T10:26:14Z</time>
      </trkpt>
      <trkpt lat="44.05081" lon="7.21103">
        <ele>2296.449295</ele>
        <time>2011-05-28T10:26:32Z</time>
      </trkpt>
      <trkpt lat="44.04988" lon="7.21117">
        <ele>2306.449188</ele>
        <time>2011-05-28T10:26:43Z</time>
      </trkpt>
      <trkpt lat="44.04919" lon="7.21029">
        <ele>2319.448921</ele>
        <time>2011-05-28T10:26:52Z</time>
      </trkpt>
      <trkpt lat="44.04839" lon="7.20958">
        <ele>2335.448666</ele>
        <time>2011-05-28T10:27:02Z</time>
      </trkpt>
      <trkpt lat="44.04769" lon="7.20867">
        <ele>2349.448387</ele>
        <time>2011-05-28T10:27:12Z</time>
      </trkpt>
      <trkpt lat="44.04677" lon="7.20848">
        <ele>2399.448227</ele>
        <time>2011-05-28T10:27:39Z</time>
      </trkpt>
      <trkpt lat="44.04585" lon="7.20831">
        <ele>2420.448059</ele>
        <time>2011-05-28T10:27:49Z</time>
      </trkpt>
      <trkpt lat="44.04585" lon="7.20702">
        <ele>2450.447807</ele>
        <time>2011-05-28T10:28:08Z</time>
      </trkpt>
      <trkpt lat="44.0468" lon="7.20736">
        <ele>2461.448006</ele>
        <time>2011-05-28T10:28:18Z</time>
      </trkpt>
      <trkpt lat="44.04736" lon="7.20847">
        <ele>2470.448307</ele>
        <time>2011-05-28T10:28:29Z</time>
      </trkpt>
      <trkpt lat="44.04826" lon="7.20847">
        <ele>2495.448433</ele>
        <time>2011-05-28T10:28:42Z</time>
      </trkpt>
      <trkpt lat="44.0483" lon="7.20719">
        <ele>2525.448181</ele>
        <time>2011-05-28T10:28:51Z</time>
      </trkpt>
      <trkpt lat="44.04812" lon="7.20586">
        <ele>2552.447891</ele>
        <time>2011-05-28T10:29:01Z</time>
      </trkpt>
      <trkpt lat="44.04808" lon="7.20455">
        <ele>2567.447632</ele>
        <time>2011-05-28T10:29:11Z</time>
      </trkpt>
      <trkpt lat="44.04803" lon="7.20319">
        <ele>2567.447357</ele>
        <time>2011-05-28T10:29:21Z</time>
      </trkpt>
      <trkpt lat="44.04772" lon="7.2019">
        <ele>2561.447052</ele>
        <time>2011-05-28T10:29:31Z</time>
      </trkpt>
      <trkpt lat="44.04684" lon="7.20244">
        <ele>2548.447037</ele>
        <time>2011-05-28T10:29:42Z</time>
      </trkpt>
      <trkpt lat="44.04628" lon="7.20346">
        <ele>2530.447166</ele>
        <time>2011-05-28T10:29:54Z</time>
      </trkpt>
      <trkpt lat="44.04575" lon="7.20451">
        <ele>2511.447296</ele>
        <time>2011-05-28T10:30:07Z</time>
      </trkpt>
      <trkpt lat="44.04532" lon="7.20571">
        <ele>2499.447472</ele>
        <time>2011-05-28T10:30:19Z</time>
      </trkpt>
      <trkpt lat="44.0448" lon="7.20683">
        <ele>2487.447617</ele>
        <time>2011-05-28T10:30:29Z</time>
      </trkpt>
      <trkpt lat="44.04419" lon="7.20789">
        <ele>2472.447746</ele>
        <time>2011-05-28T10:30:39Z</time>
      </trkpt>
      <trkpt lat="44.04375" lon="7.20899">
        <ele>2457.447906</ele>
        <time>2011-05-28T10:30:51Z</time>
      </trkpt>
      <trkpt lat="44.04336" lon="7.21016">
        <ele>2453.448082</ele>
        <time>2011-05-28T10:31:01Z</time>
      </trkpt>
      <trkpt lat="44.04429" lon="7.21002">
        <ele>2446.448181</ele>
        <time>2011-05-28T10:31:11Z</time>
      </trkpt>
      <trkpt lat="44.04515" lon="7.20945">
        <ele>2440.448189</ele>
        <time>2011-05-28T10:31:20Z</time>
      </trkpt>
      <trkpt lat="44.04597" lon="7.20885">
        <ele>2441.448181</ele>
        <time>2011-05-28T10:31:31Z</time>
      </trkpt>
      <trkpt lat="44.04677" lon="7.20811">
        <ele>2440.448151</ele>
        <time>2011-05-28T10:31:45Z</time>
      </trkpt>
      <trkpt lat="44.04758" lon="7.20741">
        <ele>2446.448128</ele>
        <time>2011-05-28T10:31:57Z</time>
      </trkpt>
      <trkpt lat="44.04833" lon="7.20666">
        <ele>2455.448082</ele>
        <time>2011-05-28T10:32:07Z</time>
      </trkpt>
      <trkpt lat="44.04907" lon="7.20579">
        <ele>2461.448013</ele>
        <time>2011-05-28T10:32:16Z</time>
      </trkpt>
      <trkpt lat="44.04988" lon="7.20501">
        <ele>2467.447975</ele>
        <time>2011-05-28T10:32:26Z</time>
      </trkpt>
      <trkpt lat="44.05064" lon="7.20429">
        <ele>2468.447937</ele>
        <time>2011-05-28T10:32:36Z</time>
      </trkpt>
      <trkpt lat="44.05124" lon="7.20331">
        <ele>2467.44783</ele>
        <time>2011-05-28T10:32:46Z</time>
      </trkpt>
      <trkpt lat="44.05217" lon="7.20281">
        <ele>2465.447857</ele>
        <time>2011-05-28T10:32:55Z</time>
      </trkpt>
      <trkpt lat="44.05302" lon="7.20217">
        <ele>2460.447845</ele>
        <time>2011-05-28T10:33:04Z</time>
      </trkpt>
      <trkpt lat="44.05385" lon="7.20157">
        <ele>2448.447849</ele>
        <time>2011-05-28T10:33:14Z</time>
      </trkpt>
      <trkpt lat="44.05471" lon="7.20104">
        <ele>2437.447865</ele>
        <time>2011-05-28T10:33:23Z</time>
      </trkpt>
      <trkpt lat="44.05563" lon="7.20071">
        <ele>2428.447929</ele>
        <time>2011-05-28T10:33:32Z</time>
      </trkpt>
      <trkpt lat="44.05602" lon="7.1995">
        <ele>2415.447746</ele>
        <time>2011-05-28T10:33:45Z</time>
      </trkpt>
      <trkpt lat="44.05668" lon="7.19853">
        <ele>2399.447647</ele>
        <time>2011-05-28T10:33:57Z</time>
      </trkpt>
      <trkpt lat="44.05753" lon="7.19781">
        <ele>2359.44762</ele>
        <time>2011-05-28T10:34:12Z</time>
      </trkpt>
      <trkpt lat="44.05841" lon="7.19751">
        <ele>2341.447685</ele>
        <time>2011-05-28T10:34:21Z</time>
      </trkpt>
      <trkpt lat="44.0593" lon="7.19707">
        <ele>2324.447723</ele>
        <time>2011-05-28T10:34:30Z</time>
      </trkpt>
      <trkpt lat="44.06015" lon="7.19751">
        <ele>2283.447929</ele>
        <time>2011-05-28T10:34:44Z</time>
      </trkpt>
      <trkpt lat="44.05996" lon="7.19624">
        <ele>2271.447655</ele>
        <time>2011-05-28T10:34:54Z</time>
      </trkpt>
      <trkpt lat="44.06018" lon="7.19637">
        <ele>2266.447708</ele>
        <time>2011-05-28T10:35:02Z</time>
      </trkpt>
      <trkpt lat="44.06108" lon="7.19618">
        <ele>2210.4478</ele>
        <time>2011-05-28T10:35:17Z</time>
      </trkpt>
      <trkpt lat="44.06168" lon="7.1973">
        <ele>2184.448105</ele>
        <time>2011-05-28T10:35:25Z</time>
      </trkpt>
      <trkpt lat="44.06175" lon="7.19749">
        <ele>2179.448151</ele>
        <time>2011-05-28T10:35:26Z</time>
      </trkpt>
      <trkpt lat="44.06182" lon="7.19768">
        <ele>2173.4482</ele>
        <time>2011-05-28T10:35:27Z</time>
      </trkpt>
      <trkpt lat="44.06188" lon="7.19781">
        <ele>2170.448235</ele>
        <time>2011-05-28T10:35:28Z</time>
      </trkpt>
      <trkpt lat="44.06193" lon="7.19794">
        <ele>2168.448265</ele>
        <time>2011-05-28T10:35:29Z</time>
      </trkpt>
      <trkpt lat="44.06249" lon="7.19791">
        <ele>2166.448338</ele>
        <time>2011-05-28T10:35:39Z</time>
      </trkpt>
      <trkpt lat="44.06163" lon="7.19833">
        <ele>2154.448303</ele>
        <time>2011-05-28T10:35:57Z</time>
      </trkpt>
      <trkpt lat="44.06072" lon="7.19805">
        <ele>2145.448112</ele>
        <time>2011-05-28T10:36:05Z</time>
      </trkpt>
      <trkpt lat="44.05982" lon="7.19846">
        <ele>2139.448074</ele>
        <time>2011-05-28T10:36:17Z</time>
      </trkpt>
      <trkpt lat="44.0609" lon="7.1988">
        <ele>2116.448288</ele>
        <time>2011-05-28T10:36:24Z</time>
      </trkpt>
      <trkpt lat="44.06174" lon="7.19947">
        <ele>2033.448536</ele>
        <time>2011-05-28T10:36:30Z</time>
      </trkpt>
      <trkpt lat="44.0625" lon="7.20032">
        <ele>1965.448814</ele>
        <time>2011-05-28T10:36:38Z</time>
      </trkpt>
      <trkpt lat="44.063" lon="7.20144">
        <ele>1929.449104</ele>
        <time>2011-05-28T10:36:47Z</time>
      </trkpt>
      <trkpt lat="44.06343" lon="7.20266">
        <ele>1900.449409</ele>
        <time>2011-05-28T10:36:57Z</time>
      </trkpt>
      <trkpt lat="44.06385" lon="7.20379">
        <ele>1883.449684</ele>
        <time>2011-05-28T10:37:06Z</time>
      </trkpt>
      <trkpt lat="44.06472" lon="7.2044">
        <ele>1872.449924</ele>
        <time>2011-05-28T10:37:16Z</time>
      </trkpt>
      <trkpt lat="44.0653" lon="7.20548">
        <ele>1846.450218</ele>
        <time>2011-05-28T10:37:27Z</time>
      </trkpt>
      <trkpt lat="44.06613" lon="7.20606">
        <ele>1827.450451</ele>
        <time>2011-05-28T10:37:37Z</time>
      </trkpt>
      <trkpt lat="44.06638" lon="7.20729">
        <ele>1806.450726</ele>
        <time>2011-05-28T10:37:48Z</time>
      </trkpt>
      <trkpt lat="44.06548" lon="7.20758">
        <ele>1786.450661</ele>
        <time>2011-05-28T10:37:56Z</time>
      </trkpt>
      <trkpt lat="44.06604" lon="7.20643">
        <ele>1750.450508</ele>
        <time>2011-05-28T10:38:16Z</time>
      </trkpt>
      <trkpt lat="44.06687" lon="7.20697">
        <ele>1732.450729</ele>
        <time>2011-05-28T10:38:21Z</time>
      </trkpt>
      <trkpt lat="44.06725" lon="7.20816">
        <ele>1694.451019</ele>
        <time>2011-05-28T10:38:29Z</time>
      </trkpt>
      <trkpt lat="44.06718" lon="7.20956">
        <ele>1668.451286</ele>
        <time>2011-05-28T10:38:38Z</time>
      </trkpt>
      <trkpt lat="44.06749" lon="7.21083">
        <ele>1650.451576</ele>
        <time>2011-05-28T10:38:47Z</time>
      </trkpt>
      <trkpt lat="44.06794" lon="7.21194">
        <ele>1638.451859</ele>
        <time>2011-05-28T10:38:56Z</time>
      </trkpt>
      <trkpt lat="44.06868" lon="7.2127">
        <ele>1629.45211</ele>
        <time>2011-05-28T10:39:06Z</time>
      </trkpt>
      <trkpt lat="44.06891" lon="7.21143">
        <ele>1625.451897</ele>
        <time>2011-05-28T10:39:22Z</time>
      </trkpt>
      <trkpt lat="44.06976" lon="7.21187">
        <ele>1618.452103</ele>
        <time>2011-05-28T10:39:35Z</time>
      </trkpt>
      <trkpt lat="44.0704" lon="7.21094">
        <ele>1564.452003</ele>
        <time>2011-05-28T10:40:07Z</time>
      </trkpt>
      <trkpt lat="44.07131" lon="7.21108">
        <ele>1560.452156</ele>
        <time>2011-05-28T10:40:18Z</time>
      </trkpt>
      <trkpt lat="44.07225" lon="7.21143">
        <ele>1558.452362</ele>
        <time>2011-05-28T10:40:28Z</time>
      </trkpt>
      <trkpt lat="44.07318" lon="7.21131">
        <ele>1551.452469</ele>
        <time>2011-05-28T10:40:38Z</time>
      </trkpt>
      <trkpt lat="44.07226" lon="7.21129">
        <ele>1539.452332</ele>
        <time>2011-05-28T10:40:57Z</time>
      </trkpt>
      <trkpt lat="44.07306" lon="7.21059">
        <ele>1532.452309</ele>
        <time>2011-05-28T10:41:14Z</time>
      </trkpt>
      <trkpt lat="44.07319" lon="7.20934">
        <ele>1520.45208</ele>
        <time>2011-05-28T10:41:33Z</time>
      </trkpt>
      <trkpt lat="44.07248" lon="7.2101">
        <ele>1527.452133</ele>
        <time>2011-05-28T10:41:44Z</time>
      </trkpt>
      <trkpt lat="44.07161" lon="7.20959">
        <ele>1534.451908</ele>
        <time>2011-05-28T10:42:06Z</time>
      </trkpt>
      <trkpt lat="44.07077" lon="7.20888">
        <ele>1538.451653</ele>
        <time>2011-05-28T10:42:56Z</time>
      </trkpt>
    </trkseg>
  </trk>
</gpx>